createdAt,value
2022-12-31T00:01:23.874Z,99514.33
2022-12-31T00:03:52.546Z,99510.27
2022-12-31T00:06:27.076Z,99513.23
2022-12-31T00:08:57.312Z,99512.71
2022-12-31T00:11:27.130Z,99510.80
2022-12-31T00:13:56.226Z,99508.66
2022-12-31T00:16:27.492Z,99505.16
2022-12-31T00:18:59.449Z,99507.04
2022-12-31T00:21:30.499Z,99509.96
2022-12-31T00:23:58.759Z,99513.30
2022-12-31T00:26:30.043Z,99510.21
2022-12-31T00:29:00.047Z,99508.84
2022-12-31T00:31:33.809Z,99509.92
2022-12-31T00:34:02.383Z,99506.95
2022-12-31T00:36:36.390Z,99506.98
2022-12-31T00:39:06.768Z,99511.95
2022-12-31T00:41:35.121Z,99509.19
2022-12-31T00:44:03.320Z,99518.17
2022-12-31T00:46:32.086Z,99516.94
2022-12-31T00:49:00.199Z,99523.79
2022-12-31T00:51:28.703Z,99528.73
2022-12-31T00:53:57.598Z,99529.30
2022-12-31T00:56:28.463Z,99536.71
2022-12-31T00:58:57.629Z,99540.11
2022-12-31T01:01:27.205Z,99540.60
2022-12-31T01:03:59.922Z,99532.65
2022-12-31T01:06:28.060Z,99526.02
2022-12-31T01:08:56.123Z,99525.11
2022-12-31T01:11:24.719Z,99511.22
2022-12-31T01:14:02.231Z,99506.20
2022-12-31T01:16:30.209Z,99499.05
2022-12-31T01:19:00.540Z,99501.26
2022-12-31T01:21:29.389Z,99499.37
2022-12-31T01:23:59.228Z,99499.73
2022-12-31T01:26:28.029Z,99490.73
2022-12-31T01:28:56.832Z,99493.47
2022-12-31T01:31:26.021Z,99490.25
2022-12-31T01:33:54.709Z,99489.86
2022-12-31T01:36:26.633Z,99492.63
2022-12-31T01:38:57.501Z,99494.48
2022-12-31T01:41:31.381Z,99489.86
2022-12-31T01:44:24.420Z,99494.53
2022-12-31T01:46:56.738Z,99489.83
2022-12-31T01:49:45.595Z,99492.41
2022-12-31T01:52:17.448Z,99488.31
2022-12-31T01:54:49.814Z,99490.54
2022-12-31T01:57:18.403Z,99487.06
2022-12-31T01:59:46.869Z,99480.63
2022-12-31T02:02:16.068Z,99478.52
2022-12-31T02:04:44.262Z,99470.20
2022-12-31T02:07:12.908Z,99467.20
2022-12-31T02:09:42.438Z,99465.81
2022-12-31T02:12:11.093Z,99470.83
2022-12-31T02:14:50.833Z,99464.20
2022-12-31T02:17:25.082Z,99459.53
2022-12-31T02:20:05.486Z,99463.48
2022-12-31T02:23:10.998Z,99460.37
2022-12-31T02:25:39.026Z,99467.48
2022-12-31T02:28:28.891Z,99468.73
2022-12-31T02:31:07.605Z,99470.42
2022-12-31T02:33:46.624Z,99471.52
2022-12-31T02:36:28.209Z,99464.52
2022-12-31T02:38:56.761Z,99463.29
2022-12-31T02:41:43.164Z,99463.14
2022-12-31T02:44:33.320Z,99461.06
2022-12-31T02:47:10.724Z,99459.68
2022-12-31T02:49:57.575Z,99459.00
2022-12-31T02:52:47.056Z,99465.66
2022-12-31T02:55:53.652Z,99468.43
2022-12-31T02:59:17.252Z,99471.13
2022-12-31T03:02:09.042Z,99471.95
2022-12-31T03:04:38.363Z,99466.05
2022-12-31T03:07:26.612Z,99468.83
2022-12-31T03:09:55.211Z,99469.73
2022-12-31T03:12:46.183Z,99466.23
2022-12-31T03:15:28.233Z,99466.36
2022-12-31T03:17:56.107Z,99465.52
2022-12-31T03:20:54.401Z,99461.45
2022-12-31T03:23:31.976Z,99460.74
2022-12-31T03:26:00.664Z,99452.98
2022-12-31T03:28:31.015Z,99442.45
2022-12-31T03:31:01.842Z,99439.19
2022-12-31T03:33:36.542Z,99439.19
2022-12-31T03:36:07.682Z,99437.81
2022-12-31T03:38:36.450Z,99442.67
2022-12-31T03:41:04.583Z,99437.48
2022-12-31T03:43:32.620Z,99442.55
2022-12-31T03:46:01.810Z,99443.06
2022-12-31T03:48:29.980Z,99440.50
2022-12-31T03:50:57.931Z,99443.80
2022-12-31T03:53:26.008Z,99447.11
2022-12-31T03:55:54.723Z,99447.83
2022-12-31T03:58:22.996Z,99452.00
2022-12-31T04:00:51.376Z,99450.04
2022-12-31T04:03:19.490Z,99455.61
2022-12-31T04:05:53.856Z,99455.77
2022-12-31T04:08:22.362Z,99454.05
2022-12-31T04:10:50.625Z,99448.53
2022-12-31T04:13:18.623Z,99454.56
2022-12-31T04:15:50.121Z,99454.08
2022-12-31T04:18:18.088Z,99465.67
2022-12-31T04:20:46.077Z,99467.34
2022-12-31T04:23:14.093Z,99456.64
2022-12-31T04:25:42.043Z,99439.52
2022-12-31T04:28:10.987Z,99434.00
2022-12-31T04:30:40.100Z,99447.49
2022-12-31T04:33:08.137Z,99454.42
2022-12-31T04:35:36.293Z,99460.00
2022-12-31T04:38:04.428Z,99454.47
2022-12-31T04:40:32.446Z,99453.40
2022-12-31T04:43:00.487Z,99453.77
2022-12-31T04:45:28.494Z,99451.00
2022-12-31T04:47:56.481Z,99457.61
2022-12-31T04:50:24.505Z,99463.85
2022-12-31T04:52:52.499Z,99462.82
2022-12-31T04:55:20.471Z,99461.10
2022-12-31T04:57:48.536Z,99466.66
2022-12-31T05:00:16.656Z,99460.46
2022-12-31T05:02:44.707Z,99459.17
2022-12-31T05:05:12.929Z,99461.98
2022-12-31T05:07:40.935Z,99461.30
2022-12-31T05:10:09.056Z,99460.30
2022-12-31T05:12:37.025Z,99462.07
2022-12-31T05:15:06.534Z,99466.23
2022-12-31T05:17:34.574Z,99471.27
2022-12-31T05:20:02.580Z,99471.95
2022-12-31T05:22:30.707Z,99481.66
2022-12-31T05:25:00.313Z,99479.71
2022-12-31T05:27:31.416Z,99484.59
2022-12-31T05:30:00.237Z,99489.79
2022-12-31T05:32:28.612Z,99496.55
2022-12-31T05:34:58.235Z,99501.08
2022-12-31T05:37:29.858Z,99499.02
2022-12-31T05:39:58.092Z,99491.42
2022-12-31T05:42:27.001Z,99494.88
2022-12-31T05:44:55.022Z,99495.60
2022-12-31T05:47:23.545Z,99489.30
2022-12-31T05:49:51.578Z,99485.20
2022-12-31T05:52:20.184Z,99484.85
2022-12-31T05:54:48.180Z,99486.08
2022-12-31T05:57:16.292Z,99489.39
2022-12-31T05:59:44.327Z,99495.30
2022-12-31T06:02:12.379Z,99493.39
2022-12-31T06:04:40.444Z,99494.11
2022-12-31T06:07:08.808Z,99491.81
2022-12-31T06:09:36.855Z,99488.03
2022-12-31T06:12:06.765Z,99481.46
2022-12-31T06:14:35.346Z,99487.36
2022-12-31T06:17:03.675Z,99488.08
2022-12-31T06:19:31.675Z,99491.92
2022-12-31T06:21:59.742Z,99492.62
2022-12-31T06:24:27.769Z,99491.59
2022-12-31T06:26:55.762Z,99495.23
2022-12-31T06:29:23.763Z,99502.80
2022-12-31T06:31:51.764Z,99498.48
2022-12-31T06:34:19.920Z,99499.02
2022-12-31T06:36:48.076Z,99503.19
2022-12-31T06:39:16.088Z,99502.88
2022-12-31T06:41:44.111Z,99503.25
2022-12-31T06:44:12.301Z,99500.31
2022-12-31T06:46:40.493Z,99502.40
2022-12-31T06:49:08.514Z,99506.92
2022-12-31T06:51:36.712Z,99509.63
2022-12-31T06:54:04.673Z,99510.02
2022-12-31T06:56:34.669Z,99518.52
2022-12-31T06:59:04.004Z,99520.98
2022-12-31T07:01:58.050Z,99520.64
2022-12-31T07:04:38.729Z,99523.08
2022-12-31T07:07:17.208Z,99530.52
2022-12-31T07:10:00.233Z,99531.55
2022-12-31T07:13:01.550Z,99537.29
2022-12-31T07:16:11.968Z,99542.59
2022-12-31T07:19:11.284Z,99541.73
2022-12-31T07:21:41.869Z,99538.98
2022-12-31T07:24:11.399Z,99532.23
2022-12-31T07:27:19.482Z,99536.23
2022-12-31T07:30:02.092Z,99546.95
2022-12-31T07:33:03.989Z,99543.32
2022-12-31T07:35:41.128Z,99544.85
2022-12-31T07:38:20.954Z,99548.84
2022-12-31T07:40:59.159Z,99546.88
2022-12-31T07:43:38.056Z,99543.26
2022-12-31T07:46:40.232Z,99544.98
2022-12-31T07:49:11.432Z,99549.00
2022-12-31T07:51:40.260Z,99543.12
2022-12-31T07:54:13.614Z,99546.42
2022-12-31T07:56:44.192Z,99551.83
2022-12-31T07:59:30.724Z,99554.81
2022-12-31T08:02:13.865Z,99562.39
2022-12-31T08:05:02.222Z,99569.05
2022-12-31T08:07:47.505Z,99568.23
2022-12-31T08:10:28.064Z,99563.39
2022-12-31T08:13:01.262Z,99559.96
2022-12-31T08:15:30.675Z,99558.95
2022-12-31T08:17:59.303Z,99559.67
2022-12-31T08:20:29.696Z,99557.43
2022-12-31T08:23:24.679Z,99558.51
2022-12-31T08:25:55.422Z,99562.09
2022-12-31T08:28:29.586Z,99570.26
2022-12-31T08:31:16.535Z,99572.88
2022-12-31T08:34:06.188Z,99576.39
2022-12-31T08:36:49.666Z,99573.27
2022-12-31T08:39:23.436Z,99575.02
2022-12-31T08:41:57.672Z,99576.05
2022-12-31T08:44:46.039Z,99575.55
2022-12-31T08:47:38.593Z,99577.85
2022-12-31T08:50:13.183Z,99579.98
2022-12-31T08:52:41.491Z,99577.05
2022-12-31T08:55:16.719Z,99579.67
2022-12-31T08:58:05.074Z,99576.90
2022-12-31T09:00:34.600Z,99583.20
2022-12-31T09:03:32.071Z,99571.58
2022-12-31T09:06:08.969Z,99556.65
2022-12-31T09:08:49.354Z,99551.27
2022-12-31T09:11:30.010Z,99553.02
2022-12-31T09:14:36.847Z,99553.63
2022-12-31T09:17:31.694Z,99555.05
2022-12-31T09:19:59.986Z,99551.29
2022-12-31T09:22:28.759Z,99540.18
2022-12-31T09:24:57.134Z,99554.98
2022-12-31T09:27:48.785Z,99567.17
2022-12-31T09:30:18.852Z,99563.56
2022-12-31T09:33:12.750Z,99563.08
2022-12-31T09:35:56.924Z,99563.02
2022-12-31T09:38:55.173Z,99564.00
2022-12-31T09:41:47.716Z,99557.80
2022-12-31T09:44:28.798Z,99555.58
2022-12-31T09:47:28.914Z,99553.19
2022-12-31T09:50:21.310Z,99551.15
2022-12-31T09:52:55.140Z,99546.84
2022-12-31T09:55:42.026Z,99545.11
2022-12-31T09:58:23.762Z,99542.02
2022-12-31T10:01:21.092Z,99534.94
2022-12-31T10:04:13.873Z,99541.38
2022-12-31T10:06:41.826Z,99540.89
2022-12-31T10:09:25.163Z,99547.16
2022-12-31T10:12:02.300Z,99549.09
2022-12-31T10:14:52.071Z,99546.51
2022-12-31T10:17:44.428Z,99541.50
2022-12-31T10:20:45.084Z,99542.73
2022-12-31T10:23:21.081Z,99544.51
2022-12-31T10:26:12.068Z,99546.23
2022-12-31T10:28:56.117Z,99544.52
2022-12-31T10:31:36.359Z,99540.34
2022-12-31T10:34:41.024Z,99531.12
2022-12-31T10:37:21.500Z,99518.75
2022-12-31T10:40:17.774Z,99512.33
2022-12-31T10:43:36.753Z,99516.84
2022-12-31T10:46:35.697Z,99514.27
2022-12-31T10:49:34.701Z,99511.15
2022-12-31T10:52:17.829Z,99504.36
2022-12-31T10:55:16.753Z,99504.20
2022-12-31T10:58:04.509Z,99505.27
2022-12-31T11:00:57.914Z,99500.21
2022-12-31T11:04:04.924Z,99500.90
2022-12-31T11:07:14.292Z,99504.38
2022-12-31T11:09:57.223Z,99504.57
2022-12-31T11:12:47.468Z,99505.11
2022-12-31T11:15:21.703Z,99502.83
2022-12-31T11:18:11.391Z,99496.04
2022-12-31T11:20:58.411Z,99486.10
2022-12-31T11:23:37.226Z,99486.27
2022-12-31T11:26:46.917Z,99489.58
2022-12-31T11:29:54.053Z,99490.10
2022-12-31T11:32:22.030Z,99491.66
2022-12-31T11:35:15.925Z,99495.84
2022-12-31T11:37:58.334Z,99493.06
2022-12-31T11:40:42.170Z,99490.80
2022-12-31T11:43:23.764Z,99490.10
2022-12-31T11:46:13.293Z,99487.30
2022-12-31T11:49:19.241Z,99489.23
2022-12-31T11:52:08.113Z,99493.42
2022-12-31T11:54:53.945Z,99487.31
2022-12-31T11:57:27.541Z,99478.08
2022-12-31T12:00:22.985Z,99479.29
2022-12-31T12:03:00.867Z,99486.24
2022-12-31T12:05:30.164Z,99489.39
2022-12-31T12:07:58.438Z,99492.17
2022-12-31T12:10:36.547Z,99496.17
2022-12-31T12:13:34.741Z,99495.48
2022-12-31T12:16:07.560Z,99493.90
2022-12-31T12:18:45.984Z,99493.20
2022-12-31T12:21:25.440Z,99487.60
2022-12-31T12:24:26.381Z,99487.95
2022-12-31T12:26:57.916Z,99488.29
2022-12-31T12:29:35.871Z,99485.48
2022-12-31T12:32:16.327Z,99478.86
2022-12-31T12:34:49.641Z,99487.40
2022-12-31T12:37:27.189Z,99491.75
2022-12-31T12:40:01.099Z,99494.37
2022-12-31T12:42:30.044Z,99495.93
2022-12-31T12:45:03.519Z,99491.39
2022-12-31T12:47:32.179Z,99480.56
2022-12-31T12:50:01.092Z,99482.45
2022-12-31T12:52:59.208Z,99483.52
2022-12-31T12:55:41.063Z,99479.32
2022-12-31T12:58:44.650Z,99481.92
2022-12-31T13:01:51.539Z,99486.64
2022-12-31T13:04:46.643Z,99485.08
2022-12-31T13:07:33.458Z,99484.91
2022-12-31T13:10:07.472Z,99488.06
2022-12-31T13:16:11.331Z,99484.55
2022-12-31T13:18:53.723Z,99488.05
2022-12-31T13:21:21.775Z,99489.80
2022-12-31T13:24:14.119Z,99484.38
2022-12-31T13:26:50.689Z,99479.49
2022-12-31T13:29:23.017Z,99481.07
2022-12-31T13:31:52.985Z,99486.48
2022-12-31T13:34:42.608Z,99479.52
2022-12-31T13:37:41.444Z,99482.47
2022-12-31T13:40:25.037Z,99475.14
2022-12-31T13:43:13.320Z,99473.91
2022-12-31T13:45:44.771Z,99473.92
2022-12-31T13:48:30.515Z,99476.53
2022-12-31T13:51:06.094Z,99480.02
2022-12-31T13:53:43.888Z,99472.19
2022-12-31T13:56:19.948Z,99476.73
2022-12-31T13:59:16.921Z,99468.91
2022-12-31T14:01:54.040Z,99474.33
2022-12-31T14:04:33.618Z,99482.19
2022-12-31T14:07:13.910Z,99485.30
2022-12-31T14:09:42.677Z,99486.71
2022-12-31T14:12:13.630Z,99494.23
2022-12-31T14:15:18.029Z,99493.01
2022-12-31T14:18:09.987Z,99481.33
2022-12-31T14:20:48.395Z,99480.67
2022-12-31T14:23:25.990Z,99485.03
2022-12-31T14:26:28.677Z,99489.58
2022-12-31T14:29:08.783Z,99489.58
2022-12-31T14:31:49.209Z,99493.94
2022-12-31T14:34:39.377Z,99491.67
2022-12-31T14:37:38.731Z,99494.11
2022-12-31T14:40:12.826Z,99489.24
2022-12-31T14:43:02.563Z,99492.73
2022-12-31T14:45:56.068Z,99493.05
2022-12-31T14:49:12.445Z,99491.13
2022-12-31T14:51:40.518Z,99500.37
2022-12-31T14:54:29.429Z,99498.45
2022-12-31T14:56:57.533Z,99493.58
2022-12-31T14:59:33.335Z,99500.71
2022-12-31T15:02:34.988Z,99503.50
2022-12-31T15:05:12.579Z,99501.92
2022-12-31T15:07:43.449Z,99501.07
2022-12-31T15:10:33.317Z,99500.89
2022-12-31T15:13:20.972Z,99496.01
2022-12-31T15:16:15.284Z,99491.66
2022-12-31T15:19:05.119Z,99490.98
2022-12-31T15:21:45.085Z,99497.60
2022-12-31T15:24:31.728Z,99503.17
2022-12-31T15:27:03.171Z,99506.67
2022-12-31T15:29:34.173Z,99507.02
2022-12-31T15:32:08.102Z,99512.42
2022-12-31T15:34:36.978Z,99509.29
2022-12-31T15:37:27.221Z,99513.27
2022-12-31T15:40:25.469Z,99511.38
2022-12-31T15:43:10.013Z,99510.66
2022-12-31T15:45:39.728Z,99513.10
2022-12-31T15:48:18.327Z,99515.89
2022-12-31T15:50:47.669Z,99512.58
2022-12-31T15:53:40.438Z,99519.20
2022-12-31T15:56:18.989Z,99525.83
2022-12-31T15:58:50.145Z,99528.79
2022-12-31T16:01:30.793Z,99535.05
2022-12-31T16:04:05.781Z,99539.59
2022-12-31T16:06:38.601Z,99543.08
2022-12-31T16:09:10.721Z,99544.65
2022-12-31T16:11:42.850Z,99544.65
2022-12-31T16:14:23.093Z,99543.04
2022-12-31T16:16:55.544Z,99544.96
2022-12-31T16:19:32.452Z,99546.36
2022-12-31T16:22:13.576Z,99552.09
2022-12-31T16:25:19.373Z,99554.02
2022-12-31T16:27:31.691Z,99558.20
2022-12-31T16:30:18.753Z,99551.94
2022-12-31T16:32:50.091Z,99546.71
2022-12-31T16:35:31.265Z,99546.70
2022-12-31T16:38:08.855Z,99544.08
2022-12-31T16:40:36.974Z,99550.88
2022-12-31T16:43:18.524Z,99559.08
2022-12-31T16:45:46.789Z,99560.29
2022-12-31T16:48:17.871Z,99565.01
2022-12-31T16:50:51.022Z,99564.48
2022-12-31T16:53:22.554Z,99566.24
2022-12-31T16:55:56.896Z,99565.73
2022-12-31T16:58:37.862Z,99570.09
2022-12-31T17:01:23.456Z,99567.46
2022-12-31T17:03:59.630Z,99568.50
2022-12-31T17:06:33.614Z,99568.85
2022-12-31T17:09:14.018Z,99571.98
2022-12-31T17:11:43.518Z,99572.15
2022-12-31T17:14:14.125Z,99566.05
2022-12-31T17:17:04.254Z,99571.45
2022-12-31T17:19:35.290Z,99567.78
2022-12-31T17:22:13.265Z,99562.89
2022-12-31T17:24:41.762Z,99562.19
2022-12-31T17:27:10.658Z,99558.16
2022-12-31T17:29:38.680Z,99557.64
2022-12-31T17:32:30.082Z,99561.30
2022-12-31T17:34:58.190Z,99561.99
2022-12-31T17:37:30.886Z,99560.23
2022-12-31T17:40:32.273Z,99556.91
2022-12-31T17:42:49.849Z,99557.45
2022-12-31T17:45:22.482Z,99555.70
2022-12-31T17:47:53.878Z,99562.33
2022-12-31T17:50:24.888Z,99568.44
2022-12-31T17:53:09.711Z,99570.88
2022-12-31T17:55:38.039Z,99568.93
2022-12-31T17:58:06.931Z,99564.41
2022-12-31T18:00:37.073Z,99560.23
2022-12-31T18:03:05.115Z,99560.94
2022-12-31T18:05:33.227Z,99557.62
2022-12-31T18:08:01.265Z,99556.92
2022-12-31T18:10:33.135Z,99560.42
2022-12-31T18:13:02.494Z,99557.63
2022-12-31T18:15:31.305Z,99562.52
2022-12-31T18:17:59.480Z,99570.87
2022-12-31T18:20:27.902Z,99574.34
2022-12-31T18:22:56.069Z,99570.86
2022-12-31T18:25:24.424Z,99563.89
2022-12-31T18:27:52.898Z,99570.01
2022-12-31T18:30:20.908Z,99569.13
2022-12-31T18:32:49.072Z,99571.75
2022-12-31T18:35:57.587Z,99578.02
2022-12-31T18:38:14.257Z,99583.25
2022-12-31T18:40:46.807Z,99586.22
2022-12-31T18:43:17.600Z,99579.77
2022-12-31T18:45:47.646Z,99580.48
2022-12-31T18:48:16.717Z,99578.56
2022-12-31T18:50:45.788Z,99582.92
2022-12-31T18:53:20.342Z,99582.76
2022-12-31T18:55:54.274Z,99580.67
2022-12-31T18:58:22.722Z,99577.86
2022-12-31T19:00:51.748Z,99587.29
2022-12-31T19:03:23.342Z,99589.91
2022-12-31T19:05:52.155Z,99591.30
2022-12-31T19:08:22.392Z,99590.44
2022-12-31T19:10:52.278Z,99590.09
2022-12-31T19:13:21.165Z,99591.83
2022-12-31T19:15:55.692Z,99595.15
2022-12-31T19:18:23.799Z,99594.61
2022-12-31T19:20:52.483Z,99597.39
2022-12-31T19:23:22.518Z,99597.58
2022-12-31T19:25:50.616Z,99600.02
2022-12-31T19:28:20.288Z,99598.10
2022-12-31T19:30:48.611Z,99600.38
2022-12-31T19:33:17.255Z,99604.89
2022-12-31T19:35:46.304Z,99610.65
2022-12-31T19:38:23.407Z,99607.34
2022-12-31T19:40:52.898Z,99611.70
2022-12-31T19:43:23.134Z,99614.31
2022-12-31T19:45:52.122Z,99611.36
2022-12-31T19:48:28.576Z,99607.17
2022-12-31T19:51:00.373Z,99609.60
2022-12-31T19:53:28.992Z,99609.63
2022-12-31T19:55:57.019Z,99602.64
2022-12-31T19:58:26.791Z,99604.57
2022-12-31T20:01:02.480Z,99606.48
2022-12-31T20:03:33.370Z,99611.02
2022-12-31T20:06:02.889Z,99620.77
2022-12-31T20:08:31.008Z,99621.82
2022-12-31T20:10:59.123Z,99629.33
2022-12-31T20:13:27.636Z,99629.14
2022-12-31T20:15:55.661Z,99629.14
2022-12-31T20:18:25.013Z,99627.75
2022-12-31T20:20:56.018Z,99624.96
2022-12-31T20:23:24.310Z,99627.05
2022-12-31T20:26:00.269Z,99628.27
2022-12-31T20:28:28.837Z,99638.55
2022-12-31T20:30:56.917Z,99639.45
2022-12-31T20:33:25.001Z,99642.05
2022-12-31T20:35:53.067Z,99643.09
2022-12-31T20:38:21.192Z,99641.71
2022-12-31T20:40:49.624Z,99640.48
2022-12-31T20:43:17.659Z,99641.35
2022-12-31T20:45:45.770Z,99647.27
2022-12-31T20:48:13.811Z,99647.11
2022-12-31T20:50:43.157Z,99646.41
2022-12-31T20:53:11.161Z,99649.89
2022-12-31T20:55:39.187Z,99652.85
2022-12-31T20:58:07.289Z,99650.93
2022-12-31T21:00:35.279Z,99649.89
2022-12-31T21:03:14.195Z,99656.34
2022-12-31T21:05:51.857Z,99652.85
2022-12-31T21:08:20.958Z,99651.63
2022-12-31T21:10:51.089Z,99656.34
2022-12-31T21:13:23.221Z,99654.59
2022-12-31T21:15:55.005Z,99658.24
2022-12-31T21:18:24.072Z,99648.67
2022-12-31T21:20:53.939Z,99646.58
2022-12-31T21:23:22.990Z,99653.71
2022-12-31T21:25:51.021Z,99655.29
2022-12-31T21:28:19.217Z,99657.20
2022-12-31T21:30:47.320Z,99653.89
2022-12-31T21:33:15.367Z,99644.13
2022-12-31T21:35:48.670Z,99642.21
2022-12-31T21:38:21.508Z,99636.81
2022-12-31T21:40:53.090Z,99635.95
2022-12-31T21:43:21.146Z,99632.63
2022-12-31T21:46:00.722Z,99627.59
2022-12-31T21:48:28.865Z,99625.48
2022-12-31T21:51:07.993Z,99624.27
2022-12-31T21:53:37.385Z,99628.13
2022-12-31T21:56:09.586Z,99627.59
2022-12-31T21:58:39.429Z,99635.25
2022-12-31T22:01:26.530Z,99629.15
2022-12-31T22:03:54.699Z,99627.59
2022-12-31T22:06:24.399Z,99631.42
2022-12-31T22:08:55.296Z,99632.98
2022-12-31T22:11:26.525Z,99639.77
2022-12-31T22:13:55.524Z,99637.69
2022-12-31T22:16:23.725Z,99632.64
2022-12-31T22:18:55.055Z,99631.08
2022-12-31T22:21:25.605Z,99624.10
2022-12-31T22:23:56.554Z,99626.89
2022-12-31T22:26:27.629Z,99632.11
2022-12-31T22:28:59.866Z,99638.56
2022-12-31T22:31:32.320Z,99635.25
2022-12-31T22:34:00.413Z,99639.43
2022-12-31T22:36:28.425Z,99634.20
2022-12-31T22:38:58.557Z,99634.03
2022-12-31T22:41:27.975Z,99631.42
2022-12-31T22:44:05.821Z,99635.60
2022-12-31T22:46:35.471Z,99630.71
2022-12-31T22:49:04.861Z,99618.52
2022-12-31T22:51:55.849Z,99626.88
2022-12-31T22:54:21.527Z,99628.11
2022-12-31T22:56:49.694Z,99626.36
2022-12-31T22:59:17.763Z,99623.05
2022-12-31T23:01:45.897Z,99624.45
2022-12-31T23:04:14.027Z,99627.40
2022-12-31T23:06:45.432Z,99635.95
2022-12-31T23:09:34.542Z,99642.21
2022-12-31T23:12:04.689Z,99641.16
2022-12-31T23:14:52.275Z,99638.20
2022-12-31T23:17:44.717Z,99639.78
2022-12-31T23:20:37.549Z,99638.04
2022-12-31T23:23:10.081Z,99640.64
2022-12-31T23:25:47.982Z,99638.90
2022-12-31T23:28:24.660Z,99640.13
2022-12-31T23:30:53.214Z,99637.84
2022-12-31T23:33:24.617Z,99639.78
2022-12-31T23:36:06.641Z,99639.60
2022-12-31T23:38:41.536Z,99637.16
2022-12-31T23:41:14.668Z,99638.91
2022-12-31T23:43:43.929Z,99637.34
2022-12-31T23:46:12.848Z,99641.17
2022-12-31T23:48:40.945Z,99642.21
2022-12-31T23:51:09.306Z,99641.30
2022-12-31T23:53:38.723Z,99643.39
2022-12-31T23:56:13.904Z,99644.77
2022-12-31T23:58:46.079Z,99641.82
